Time;durP1;ratioP1;P1;durP2;ratioP2;P2;SDS_P1;SDS_P2;PMS_P1;PMS_P2;Temp;Humidity;BMP_temperature;BMP_pressure;BME280_temperature;BME280_humidity;BME280_pressure;Samples;Min_cycle;Max_cycle;Signal;HPM_P1;HPM_P2
2022/09/19 00:01:10;;;;;;;0.90;0.50;;;17.80;94.60;;;;;;5054507;28;20033;-26
2022/09/19 00:03:37;;;;;;;0.80;0.47;;;17.80;94.60;;;;;;5054207;28;20032;-26
2022/09/19 00:06:03;;;;;;;1.17;0.57;;;17.80;94.60;;;;;;5054369;28;20029;-26
2022/09/19 00:08:29;;;;;;;0.98;0.38;;;17.80;94.60;;;;;;5054109;28;20025;-26
2022/09/19 00:10:55;;;;;;;1.08;0.47;;;17.80;94.60;;;;;;5053895;28;20106;-26
2022/09/19 00:13:21;;;;;;;1.17;0.50;;;17.80;94.60;;;;;;5053934;28;20113;-26
2022/09/19 00:15:49;;;;;;;0.80;0.40;;;17.80;94.70;;;;;;5054011;28;20025;-26
2022/09/19 00:18:15;;;;;;;0.50;0.30;;;17.80;94.60;;;;;;5053920;28;20025;-26
2022/09/19 00:20:47;;;;;;;1.05;0.43;;;17.80;94.70;;;;;;5053737;28;20036;-26
2022/09/19 00:25:59;;;;;;;;;;;17.80;94.70;;;;;;5020171;28;20441;-24
2022/09/19 00:28:27;;;;;;;0.75;0.43;;;17.80;94.70;;;;;;5034209;28;19917;-24
2022/09/19 00:30:56;;;;;;;0.55;0.32;;;17.80;94.70;;;;;;5034811;28;20121;-24
2022/09/19 00:33:27;;;;;;;0.77;0.50;;;17.80;94.70;;;;;;5033884;28;20398;-24
2022/09/19 00:35:54;;;;;;;0.70;0.30;;;17.80;94.70;;;;;;5033829;28;20030;-24
2022/09/19 00:38:21;;;;;;;0.40;0.30;;;17.80;94.70;;;;;;5033641;28;20021;-24
2022/09/19 00:40:48;;;;;;;0.70;0.40;;;17.80;94.70;;;;;;5033369;28;20455;-24
2022/09/19 00:43:15;;;;;;;0.40;0.20;;;17.80;94.80;;;;;;5033478;28;20402;-24
2022/09/19 00:45:40;;;;;;;0.95;0.40;;;17.80;94.70;;;;;;5033516;28;20021;-24
2022/09/19 00:48:07;;;;;;;0.65;0.30;;;17.80;94.70;;;;;;5015636;28;20025;-24
2022/09/19 00:50:33;;;;;;;0.32;0.30;;;17.80;94.70;;;;;;5033379;28;20048;-24
2022/09/19 00:53:11;;;;;;;0.22;0.20;;;17.80;94.70;;;;;;5033290;28;20471;-24
2022/09/19 00:55:39;;;;;;;0.68;0.30;;;17.80;94.70;;;;;;5033441;28;20021;-24
2022/09/19 00:58:18;;;;;;;0.30;0.30;;;17.80;94.70;;;;;;5033300;28;20125;-24
2022/09/19 01:00:44;;;;;;;0.30;0.30;;;17.70;94.70;;;;;;5033129;28;20495;-24
2022/09/19 01:03:10;;;;;;;0.73;0.38;;;17.80;94.70;;;;;;5015381;28;20044;-24
2022/09/19 01:06:11;;;;;;;0.43;0.20;;;17.70;94.70;;;;;;5033043;28;20022;-24
2022/09/19 01:08:59;;;;;;;0.50;0.22;;;17.70;94.70;;;;;;4962127;28;20070;-24
2022/09/19 01:11:43;;;;;;;1.27;0.38;;;17.80;94.70;;;;;;5032925;28;20068;-24
2022/09/19 01:14:26;;;;;;;0.30;0.20;;;17.80;94.70;;;;;;5032928;28;20030;-24
2022/09/19 01:17:00;;;;;;;0.47;0.30;;;17.80;94.70;;;;;;5033061;28;20018;-23
2022/09/19 01:19:59;;;;;;;3.38;0.20;;;17.80;94.70;;;;;;5032760;28;20128;-23
2022/09/19 01:22:48;;;;;;;0.95;0.45;;;17.70;94.70;;;;;;5032852;28;20457;-23
2022/09/19 01:25:19;;;;;;;1.05;0.30;;;17.70;94.70;;;;;;5032798;28;20394;-23
2022/09/19 01:28:05;;;;;;;0.20;0.10;;;17.70;94.70;;;;;;5032726;28;20026;-24
2022/09/19 01:30:32;;;;;;;0.25;0.17;;;17.70;94.70;;;;;;5032590;28;20029;-24
2022/09/19 01:33:05;;;;;;;0.30;0.20;;;17.70;94.70;;;;;;5032400;28;20043;-24
2022/09/19 01:35:37;;;;;;;0.10;0.10;;;17.70;94.70;;;;;;5032608;28;20475;-24
2022/09/19 01:38:15;;;;;;;0.65;0.40;;;17.70;94.70;;;;;;5032169;28;20033;-24
2022/09/19 01:40:41;;;;;;;0.52;0.30;;;17.70;94.70;;;;;;5032374;28;20026;-24
2022/09/19 01:43:13;;;;;;;0.63;0.20;;;17.70;94.70;;;;;;5032336;28;20467;-23
2022/09/19 01:45:41;;;;;;;0.70;0.20;;;17.70;94.70;;;;;;5032535;28;20040;-23
2022/09/19 01:48:16;;;;;;;0.38;0.20;;;17.70;94.70;;;;;;5032781;28;20026;-23
2022/09/19 01:51:05;;;;;;;2.72;0.30;;;17.70;94.70;;;;;;5032170;28;20487;-23
2022/09/19 01:54:00;;;;;;;1.55;0.10;;;17.70;94.70;;;;;;5032264;28;20022;-23
2022/09/19 01:56:43;;;;;;;3.03;0.30;;;17.70;94.70;;;;;;5012373;28;20041;-23
2022/09/19 01:59:32;;;;;;;0.70;0.30;;;17.70;94.70;;;;;;5032135;28;20147;-23
2022/09/19 02:02:33;;;;;;;2.80;0.30;;;17.70;94.70;;;;;;5031944;28;20116;-23
2022/09/19 02:05:24;;;;;;;0.93;0.20;;;17.70;94.60;;;;;;5018636;28;20177;-24
2022/09/19 02:08:03;;;;;;;0.55;0.25;;;17.70;94.60;;;;;;5032231;28;20394;-23
2022/09/19 02:10:44;;;;;;;3.92;0.38;;;17.70;94.60;;;;;;5031759;28;20040;-23
2022/09/19 02:13:11;;;;;;;0.80;0.10;;;17.60;94.60;;;;;;5032005;28;20501;-23
2022/09/19 02:15:41;;;;;;;0.55;0.15;;;17.60;94.60;;;;;;5032169;28;20037;-23
2022/09/19 02:18:20;;;;;;;0.52;0.20;;;17.60;94.60;;;;;;5031951;28;20479;-23
2022/09/19 02:20:47;;;;;;;0.47;0.20;;;17.60;94.90;;;;;;5031791;28;20386;-23
2022/09/19 02:23:22;;;;;;;0.82;0.22;;;17.60;94.50;;;;;;5031815;28;20029;-23
2022/09/19 02:25:51;;;;;;;1.25;0.30;;;17.60;94.50;;;;;;5031938;28;20036;-23
2022/09/19 02:28:22;;;;;;;0.55;0.25;;;17.60;94.50;;;;;;5031927;28;20021;-23
2022/09/19 02:30:49;;;;;;;0.50;0.15;;;17.60;94.50;;;;;;5031825;28;20049;-23
2022/09/19 02:33:15;;;;;;;0.35;0.22;;;17.60;94.50;;;;;;5031660;28;20034;-23
2022/09/19 02:35:59;;;;;;;1.65;0.20;;;17.60;94.50;;;;;;5032024;28;20433;-23
2022/09/19 02:38:58;;;;;;;1.60;0.20;;;17.60;94.50;;;;;;5031821;28;20025;-23
2022/09/19 02:41:42;;;;;;;0.90;0.15;;;17.60;94.50;;;;;;5031756;28;20064;-23
2022/09/19 02:44:18;;;;;;;0.93;0.28;;;17.60;94.50;;;;;;5031851;28;20076;-23
2022/09/19 02:47:03;;;;;;;1.67;0.25;;;17.60;94.50;;;;;;5031902;28;20406;-23
2022/09/19 02:49:43;;;;;;;0.52;0.20;;;17.60;94.40;;;;;;5033866;28;20029;-23
2022/09/19 02:52:16;;;;;;;2.85;0.30;;;17.60;94.40;;;;;;5017633;28;20034;-23
2022/09/19 02:54:48;;;;;;;0.60;0.20;;;17.60;94.40;;;;;;5035746;28;20101;-23
2022/09/19 02:57:16;;;;;;;0.98;0.32;;;17.60;94.40;;;;;;5035655;28;20021;-23
2022/09/19 02:59:44;;;;;;;0.55;0.25;;;17.60;94.40;;;;;;5017596;28;20386;-23
2022/09/19 03:02:25;;;;;;;0.98;0.30;;;17.60;94.40;;;;;;5035607;28;20448;-23
2022/09/19 03:04:56;;;;;;;0.95;0.20;;;17.60;94.40;;;;;;5036184;28;20364;-23
2022/09/19 03:07:40;;;;;;;0.20;0.10;;;17.60;94.40;;;;;;5035640;28;20360;-23
2022/09/19 03:10:14;;;;;;;0.37;0.20;;;17.60;94.60;;;;;;5035500;28;20026;-23
2022/09/19 03:12:39;;;;;;;1.88;0.20;;;17.60;94.40;;;;;;5036276;28;20104;-23
2022/09/19 03:15:07;;;;;;;0.15;0.10;;;17.60;94.40;;;;;;5035720;28;20057;-23
2022/09/19 03:17:38;;;;;;;0.30;0.20;;;17.60;94.40;;;;;;5035285;28;20021;-23
2022/09/19 03:20:05;;;;;;;0.40;0.30;;;17.60;94.30;;;;;;5035212;28;20091;-23
2022/09/19 03:22:31;;;;;;;0.85;0.30;;;17.60;94.30;;;;;;5034903;28;20034;-23
2022/09/19 03:25:01;;;;;;;0.22;0.20;;;17.60;94.30;;;;;;5035116;28;20025;-23
2022/09/19 03:27:27;;;;;;;0.88;0.30;;;17.60;94.30;;;;;;5034856;28;20021;-23
2022/09/19 03:29:52;;;;;;;1.60;0.10;;;17.50;94.30;;;;;;5034861;28;20368;-23
2022/09/19 03:32:18;;;;;;;0.20;0.10;;;17.50;94.30;;;;;;5034698;28;20029;-23
2022/09/19 03:34:43;;;;;;;1.23;0.30;;;17.50;94.20;;;;;;5034906;28;20037;-23
2022/09/19 03:37:09;;;;;;;0.28;0.10;;;17.50;94.20;;;;;;5034812;28;20021;-23
2022/09/19 03:39:35;;;;;;;0.20;0.17;;;17.50;94.20;;;;;;5034625;28;20056;-23
2022/09/19 03:42:01;;;;;;;1.00;0.30;;;17.50;94.20;;;;;;5016694;28;20482;-23
2022/09/19 03:44:26;;;;;;;1.10;0.40;;;17.50;94.20;;;;;;5034890;28;20028;-23
2022/09/19 03:46:52;;;;;;;1.27;0.30;;;17.50;94.20;;;;;;5034686;28;20037;-23
2022/09/19 03:49:19;;;;;;;0.68;0.20;;;17.50;94.20;;;;;;5034482;28;20026;-23
2022/09/19 03:51:46;;;;;;;2.13;0.30;;;17.50;94.20;;;;;;5034401;28;20030;-23
2022/09/19 03:54:11;;;;;;;2.05;0.70;;;17.50;94.20;;;;;;5034489;28;20064;-23
2022/09/19 03:56:37;;;;;;;0.63;0.30;;;17.50;94.20;;;;;;5034364;28;20025;-23
2022/09/19 03:59:03;;;;;;;0.57;0.20;;;17.50;94.20;;;;;;5034147;28;20031;-23
2022/09/19 04:01:28;;;;;;;0.30;0.20;;;17.50;94.20;;;;;;5034337;28;20116;-23
2022/09/19 04:03:55;;;;;;;0.98;0.30;;;17.50;94.20;;;;;;5034277;28;20029;-23
2022/09/19 04:06:20;;;;;;;0.50;0.30;;;17.50;94.20;;;;;;5034342;28;20029;-23
2022/09/19 04:08:46;;;;;;;0.80;0.20;;;17.50;94.20;;;;;;5034129;28;20030;-23
2022/09/19 04:11:12;;;;;;;0.88;0.30;;;17.50;94.20;;;;;;5016255;28;20025;-23
2022/09/19 04:13:38;;;;;;;1.40;0.40;;;17.50;94.10;;;;;;5034216;28;20025;-23
2022/09/19 04:16:05;;;;;;;2.80;0.55;;;17.50;94.10;;;;;;5034546;28;20041;-23
2022/09/19 04:18:32;;;;;;;1.05;0.40;;;17.50;94.10;;;;;;5016819;28;20363;-23
2022/09/19 04:20:58;;;;;;;2.05;0.50;;;17.50;94.10;;;;;;5034051;28;20021;-23
2022/09/19 04:23:26;;;;;;;1.80;0.22;;;17.40;94.10;;;;;;5033867;28;20045;-23
2022/09/19 04:25:52;;;;;;;1.05;0.32;;;17.50;94.10;;;;;;5033912;28;20426;-23
2022/09/19 04:28:18;;;;;;;1.13;0.30;;;17.40;94.10;;;;;;5033853;28;20485;-23
2022/09/19 04:30:44;;;;;;;1.13;0.35;;;17.40;94.10;;;;;;5033749;28;20052;-23
2022/09/19 04:33:13;;;;;;;0.50;0.20;;;17.40;94.10;;;;;;5033733;28;20052;-23
2022/09/19 04:35:45;;;;;;;0.40;0.30;;;17.40;94.10;;;;;;5034412;28;20026;-23
2022/09/19 04:38:16;;;;;;;1.88;0.50;;;17.40;94.10;;;;;;5033829;28;20025;-23
2022/09/19 04:40:45;;;;;;;0.77;0.30;;;17.40;94.40;;;;;;5033573;28;20060;-23
2022/09/19 04:43:14;;;;;;;0.85;0.30;;;17.40;94.10;;;;;;5033657;28;20025;-23
2022/09/19 04:45:40;;;;;;;0.55;0.35;;;17.40;94.10;;;;;;5033694;28;20055;-23
2022/09/19 04:48:06;;;;;;;1.38;0.45;;;17.40;94.10;;;;;;5033569;28;20049;-23
2022/09/19 04:50:36;;;;;;;2.38;0.50;;;17.40;94.10;;;;;;5033331;28;20029;-23
2022/09/19 04:53:02;;;;;;;1.98;0.25;;;17.40;94.10;;;;;;5033512;28;20037;-23
2022/09/19 04:55:29;;;;;;;0.77;0.22;;;17.40;94.10;;;;;;5033397;28;20022;-23
2022/09/19 04:58:00;;;;;;;2.03;0.40;;;17.40;94.10;;;;;;5033344;28;20028;-23
2022/09/19 05:00:38;;;;;;;1.38;0.38;;;17.40;94.10;;;;;;5033079;28;20022;-23
2022/09/19 05:03:07;;;;;;;1.05;0.40;;;17.40;94.10;;;;;;5033140;28;20029;-23
2022/09/19 05:05:36;;;;;;;1.48;0.50;;;17.40;94.10;;;;;;5033102;28;20021;-23
2022/09/19 05:08:04;;;;;;;0.93;0.30;;;17.40;94.10;;;;;;5034087;28;20033;-23
2022/09/19 05:10:32;;;;;;;0.95;0.32;;;17.40;94.10;;;;;;5032890;28;20034;-23
2022/09/19 05:12:59;;;;;;;1.58;0.50;;;17.40;94.10;;;;;;5032303;28;20033;-23
2022/09/19 05:15:25;;;;;;;1.98;0.60;;;17.40;94.10;;;;;;5033005;28;20100;-23
2022/09/19 05:17:55;;;;;;;1.63;0.50;;;17.40;94.10;;;;;;5032847;28;20104;-23
2022/09/19 05:20:26;;;;;;;2.63;0.50;;;17.40;94.10;;;;;;5032929;28;20107;-23
2022/09/19 05:22:58;;;;;;;1.70;0.47;;;17.40;94.10;;;;;;5032674;28;20462;-23
2022/09/19 05:25:28;;;;;;;1.27;0.57;;;17.40;94.10;;;;;;5015062;28;20061;-23
2022/09/19 05:27:57;;;;;;;1.75;0.40;;;17.40;94.10;;;;;;5032701;28;20439;-23
2022/09/19 05:30:26;;;;;;;1.48;0.60;;;17.40;94.10;;;;;;5032354;28;20033;-23
2022/09/19 05:32:51;;;;;;;3.30;0.60;;;17.40;94.10;;;;;;5032602;28;20052;-23
2022/09/19 05:35:18;;;;;;;1.58;0.45;;;17.40;94.10;;;;;;5032784;28;20441;-23
2022/09/19 05:37:47;;;;;;;2.53;0.75;;;17.40;94.00;;;;;;5032632;28;20033;-23
2022/09/19 05:40:13;;;;;;;2.13;0.70;;;17.30;94.00;;;;;;5032365;28;20025;-23
2022/09/19 05:42:41;;;;;;;1.98;0.73;;;17.30;94.00;;;;;;5032399;28;20029;-23
2022/09/19 05:45:07;;;;;;;2.08;0.60;;;17.40;94.40;;;;;;5032399;28;20029;-23
2022/09/19 05:47:33;;;;;;;1.20;0.60;;;17.40;94.00;;;;;;5032452;28;20029;-23
2022/09/19 05:49:58;;;;;;;2.33;0.70;;;17.40;94.00;;;;;;5032199;28;20026;-23
2022/09/19 05:55:09;;;;;;;1.80;0.63;;;17.40;94.10;;;;;;5032376;28;20136;-22
2022/09/19 05:57:35;;;;;;;4.70;1.00;;;17.30;94.00;;;;;;5032842;28;20049;-23
2022/09/19 06:00:01;;;;;;;1.58;0.73;;;17.30;94.00;;;;;;5032229;28;20056;-23
2022/09/19 06:02:27;;;;;;;2.72;0.60;;;17.30;94.10;;;;;;5032167;28;20031;-23
2022/09/19 06:04:53;;;;;;;2.17;0.73;;;17.30;94.10;;;;;;5032251;28;20391;-23
2022/09/19 06:07:20;;;;;;;2.00;0.80;;;17.30;94.10;;;;;;5032536;28;20057;-23
2022/09/19 06:09:45;;;;;;;2.90;0.88;;;17.30;94.10;;;;;;5031980;28;20453;-23
2022/09/19 06:12:11;;;;;;;2.30;0.80;;;17.30;94.10;;;;;;5031826;28;20029;-23
2022/09/19 06:14:38;;;;;;;1.67;0.70;;;17.30;94.10;;;;;;5031892;28;20071;-23
2022/09/19 06:17:04;;;;;;;2.50;0.73;;;17.30;94.10;;;;;;5031973;28;20029;-23
2022/09/19 06:19:30;;;;;;;1.40;0.68;;;17.30;94.50;;;;;;5032045;28;20022;-23
2022/09/19 06:21:57;;;;;;;2.03;0.80;;;17.30;94.20;;;;;;5031575;28;20541;-23
2022/09/19 06:24:23;;;;;;;2.47;0.73;;;17.30;94.10;;;;;;5069105;22;20405;-25
2022/09/19 06:26:53;;;;;;;3.17;0.80;;;17.30;94.20;;;;;;5051848;28;20028;-25
2022/09/19 06:29:19;;;;;;;3.47;1.05;;;17.30;94.20;;;;;;5051608;28;20032;-25
2022/09/19 06:31:45;;;;;;;2.95;1.00;;;17.30;94.20;;;;;;5051566;28;20033;-25
2022/09/19 06:34:12;;;;;;;0.95;0.40;;;17.30;94.20;;;;;;5051680;28;20100;-27
2022/09/19 06:36:37;;;;;;;1.52;0.80;;;17.30;94.20;;;;;;5051862;28;20017;-24
2022/09/19 06:39:04;;;;;;;3.45;0.88;;;17.30;94.20;;;;;;5051634;28;20028;-26
2022/09/19 06:41:31;;;;;;;2.63;0.88;;;17.30;94.20;;;;;;5051640;28;20029;-26
2022/09/19 06:43:57;;;;;;;1.40;0.70;;;17.30;94.20;;;;;;5051513;28;20029;-26
2022/09/19 06:46:23;;;;;;;4.28;1.10;;;17.30;94.20;;;;;;5051708;28;20029;-25
2022/09/19 06:48:48;;;;;;;4.43;1.20;;;17.20;94.10;;;;;;5051745;28;20025;-26
2022/09/19 06:51:14;;;;;;;6.80;1.20;;;17.00;91.90;;;;;;5051581;28;20528;-26
2022/09/19 06:53:40;;;;;;;8.65;1.42;;;16.80;92.30;;;;;;5051651;28;20105;-26
2022/09/19 06:56:05;;;;;;;6.05;1.20;;;16.70;92.70;;;;;;5051503;28;20496;-24
2022/09/19 06:58:31;;;;;;;5.90;1.25;;;16.80;92.80;;;;;;5051490;28;20033;-26
2022/09/19 07:01:00;;;;;;;7.70;1.75;;;16.80;93.00;;;;;;5051484;28;20071;-26
2022/09/19 07:03:26;;;;;;;9.45;1.73;;;16.80;92.50;;;;;;5051502;28;20445;-26
2022/09/19 07:05:51;;;;;;;5.72;1.30;;;16.70;92.50;;;;;;5051525;28;20057;-26
2022/09/19 07:08:17;;;;;;;4.80;1.13;;;16.60;92.70;;;;;;5051408;28;20025;-25
2022/09/19 07:10:43;;;;;;;7.88;1.30;;;16.70;92.80;;;;;;5051250;28;20072;-25
2022/09/19 07:13:13;;;;;;;6.03;1.40;;;16.70;92.90;;;;;;5051296;28;20056;-26
2022/09/19 07:15:39;;;;;;;5.88;1.45;;;16.80;92.90;;;;;;5051521;28;20104;-25
2022/09/19 07:18:08;;;;;;;3.65;1.17;;;16.80;93.00;;;;;;5051291;28;20434;-25
2022/09/19 07:20:34;;;;;;;9.23;1.50;;;16.90;93.00;;;;;;5051238;28;20029;-25
2022/09/19 07:23:05;;;;;;;4.72;1.20;;;16.90;93.00;;;;;;5051162;28;20033;-25
2022/09/19 07:25:32;;;;;;;4.32;1.20;;;16.90;93.10;;;;;;5051248;28;20049;-25
2022/09/19 07:28:04;;;;;;;4.10;1.40;;;17.00;93.40;;;;;;5051367;28;20036;-25
2022/09/19 07:30:30;;;;;;;7.15;1.40;;;17.00;93.10;;;;;;5051256;28;20112;-26
2022/09/19 07:32:57;;;;;;;4.47;1.20;;;17.00;93.20;;;;;;5051151;28;20444;-25
2022/09/19 07:35:27;;;;;;;6.45;1.35;;;17.00;93.20;;;;;;5053150;28;20068;-26
2022/09/19 07:37:54;;;;;;;6.80;1.30;;;17.00;93.20;;;;;;5054698;28;20047;-25
2022/09/19 07:40:20;;;;;;;5.15;1.23;;;17.00;93.30;;;;;;5054583;28;20074;-25
2022/09/19 07:42:46;;;;;;;4.05;1.17;;;17.00;93.30;;;;;;5054706;28;20122;-25
2022/09/19 07:45:12;;;;;;;5.32;1.70;;;17.00;93.40;;;;;;5054801;28;20112;-25
2022/09/19 07:47:45;;;;;;;6.90;1.40;;;17.00;93.40;;;;;;5054562;28;20111;-25
2022/09/19 07:50:17;;;;;;;4.65;1.00;;;17.00;93.40;;;;;;5054395;28;20150;-25
2022/09/19 07:52:46;;;;;;;2.80;1.00;;;17.10;93.50;;;;;;5054474;28;20052;-25
2022/09/19 07:55:15;;;;;;;3.20;0.98;;;17.00;93.50;;;;;;5054734;28;20057;-25
2022/09/19 07:58:00;;;;;;;7.63;1.30;;;17.00;93.50;;;;;;5054477;28;20017;-25
2022/09/19 08:00:27;;;;;;;4.95;1.30;;;17.00;93.60;;;;;;5054266;28;20514;-26
2022/09/19 08:03:16;;;;;;;3.60;0.95;;;17.00;93.60;;;;;;5054117;28;20025;-25
2022/09/19 08:05:45;;;;;;;5.25;1.10;;;17.00;93.60;;;;;;5054386;28;20020;-25
2022/09/19 08:08:12;;;;;;;4.03;1.10;;;17.00;93.60;;;;;;5054268;28;20091;-25
2022/09/19 08:10:42;;;;;;;3.80;1.05;;;17.00;93.60;;;;;;5054092;28;20036;-25
2022/09/19 08:13:09;;;;;;;3.95;1.00;;;17.00;93.70;;;;;;5053978;28;20024;-25
2022/09/19 08:15:36;;;;;;;3.95;1.30;;;17.00;93.70;;;;;;5054363;28;20489;-26
2022/09/19 08:18:07;;;;;;;3.03;1.08;;;17.00;93.70;;;;;;5054125;28;20060;-25
2022/09/19 08:20:38;;;;;;;4.22;1.17;;;17.00;93.70;;;;;;5054056;28;20121;-25
2022/09/19 08:23:09;;;;;;;3.15;1.08;;;17.00;93.70;;;;;;5053897;28;20111;-26
2022/09/19 08:25:41;;;;;;;4.22;0.90;;;17.00;93.80;;;;;;5053996;28;20033;-25
2022/09/19 08:28:07;;;;;;;4.43;1.17;;;17.00;93.80;;;;;;5053848;28;20056;-25
2022/09/19 08:30:33;;;;;;;4.05;1.10;;;17.00;93.80;;;;;;5053651;28;20067;-25
2022/09/19 08:33:01;;;;;;;4.57;1.20;;;17.00;93.80;;;;;;5053588;28;20078;-25
2022/09/19 08:35:29;;;;;;;3.70;1.00;;;17.10;93.90;;;;;;5053978;28;20078;-25
2022/09/19 08:37:56;;;;;;;2.72;1.00;;;17.10;93.80;;;;;;5053678;28;20028;-25
2022/09/19 08:40:28;;;;;;;3.92;0.95;;;17.10;93.80;;;;;;5053309;28;20441;-25
2022/09/19 08:43:28;;;;;;;4.78;1.35;;;17.20;93.90;;;;;;5053532;28;20025;-25
2022/09/19 08:46:18;;;;;;;5.35;1.23;;;17.20;93.80;;;;;;5052618;28;20034;-26
2022/09/19 08:49:04;;;;;;;4.10;0.95;;;17.20;93.80;;;;;;5053269;28;20039;-25
2022/09/19 08:51:57;;;;;;;4.50;0.88;;;17.30;93.80;;;;;;5053312;28;20029;-25
2022/09/19 08:54:45;;;;;;;6.40;1.00;;;17.30;93.50;;;;;;5053276;28;20021;-25
2022/09/19 08:57:21;;;;;;;4.40;1.20;;;17.00;92.60;;;;;;5053181;28;20379;-26
2022/09/19 08:59:50;;;;;;;11.43;1.80;;;16.90;92.80;;;;;;5035217;28;20075;-25
2022/09/19 09:02:46;;;;;;;10.75;1.60;;;16.90;92.90;;;;;;5053172;28;20474;-25
2022/09/19 09:05:14;;;;;;;5.90;1.10;;;17.00;93.00;;;;;;5053099;28;20494;-25
2022/09/19 09:08:00;;;;;;;5.78;0.95;;;17.10;93.00;;;;;;5035106;28;20134;-25
2022/09/19 09:10:51;;;;;;;5.32;1.25;;;17.10;93.10;;;;;;5053043;28;20056;-25
2022/09/19 09:13:41;;;;;;;6.35;1.35;;;17.20;93.10;;;;;;5052901;28;20501;-25
2022/09/19 09:16:14;;;;;;;7.03;1.30;;;17.20;93.10;;;;;;5053027;28;20087;-25
2022/09/19 09:18:47;;;;;;;6.35;1.20;;;17.20;93.20;;;;;;5052783;28;20112;-24
2022/09/19 09:21:37;;;;;;;6.20;1.53;;;17.20;93.20;;;;;;5052858;28;20108;-25
2022/09/19 09:24:11;;;;;;;3.63;1.02;;;17.20;93.20;;;;;;5052530;28;20033;-25
2022/09/19 09:26:40;;;;;;;4.47;1.13;;;17.30;93.30;;;;;;5052899;28;20021;-25
2022/09/19 09:29:17;;;;;;;4.72;1.30;;;17.30;93.30;;;;;;5052653;28;20017;-25
2022/09/19 09:32:15;;;;;;;4.90;1.10;;;17.30;93.30;;;;;;5052559;28;20032;-25
2022/09/19 09:35:03;;;;;;;5.45;1.20;;;17.30;93.40;;;;;;5052469;28;20401;-26
2022/09/19 09:37:53;;;;;;;3.60;1.10;;;17.30;93.40;;;;;;5052608;28;20398;-25
2022/09/19 09:43:54;;;;;;;4.65;1.10;;;17.20;93.50;;;;;;5010272;28;20048;-25
2022/09/19 09:46:32;;;;;;;3.65;1.13;;;17.30;93.50;;;;;;5052393;28;20049;-24
2022/09/19 09:48:58;;;;;;;2.90;0.90;;;17.30;93.60;;;;;;5052272;28;20490;-26
2022/09/19 09:51:51;;;;;;;5.65;0.98;;;17.30;93.60;;;;;;5052083;28;20032;-25
2022/09/19 09:57:43;;;;;;;4.60;1.10;;;17.30;93.60;;;;;;5052072;28;20563;-25
2022/09/19 10:03:36;;;;;;;3.17;0.90;;;17.30;93.60;;;;;;5052379;28;20554;-25
2022/09/19 10:06:15;;;;;;;3.35;0.98;;;17.30;93.70;;;;;;5052132;28;20075;-25
2022/09/19 10:08:43;;;;;;;3.88;1.13;;;17.30;93.70;;;;;;5052010;28;20021;-26
2022/09/19 10:11:20;;;;;;;2.97;0.80;;;17.30;93.70;;;;;;5052215;28;20327;-26
2022/09/19 10:14:01;;;;;;;4.20;0.80;;;17.30;93.70;;;;;;5052017;28;20029;-25
2022/09/19 10:16:31;;;;;;;2.88;1.00;;;17.30;93.70;;;;;;5052031;28;20075;-25
2022/09/19 10:19:04;;;;;;;3.47;0.82;;;17.30;93.70;;;;;;5051874;28;20025;-25
2022/09/19 10:21:30;;;;;;;3.25;0.70;;;17.40;94.10;;;;;;5051970;28;20071;-25
2022/09/19 10:23:56;;;;;;;2.55;0.60;;;17.40;93.80;;;;;;5051768;28;20049;-25
2022/09/19 10:26:27;;;;;;;1.67;0.52;;;17.30;93.80;;;;;;5052030;28;20096;-25
2022/09/19 10:28:59;;;;;;;2.88;0.85;;;17.30;93.80;;;;;;5051659;28;20021;-26
2022/09/19 10:31:34;;;;;;;5.18;0.85;;;17.30;93.80;;;;;;5051772;28;20417;-27
2022/09/19 10:34:05;;;;;;;4.35;0.95;;;17.40;93.80;;;;;;5051749;28;20535;-25
2022/09/19 10:36:33;;;;;;;4.43;1.13;;;17.30;92.20;;;;;;5051802;28;20478;-25
2022/09/19 10:39:12;;;;;;;4.45;0.90;;;17.10;92.30;;;;;;5051518;28;20021;-25
2022/09/19 10:41:40;;;;;;;3.63;0.95;;;17.10;92.50;;;;;;5051733;28;20027;-24
2022/09/19 10:44:22;;;;;;;4.90;0.90;;;17.10;92.70;;;;;;5051910;28;20217;-25
2022/09/19 10:46:54;;;;;;;4.43;1.20;;;17.20;92.80;;;;;;5051706;28;20017;-25
2022/09/19 10:49:24;;;;;;;4.10;1.02;;;17.20;92.80;;;;;;5051557;28;20044;-25
2022/09/19 10:51:52;;;;;;;4.35;0.90;;;17.30;92.90;;;;;;5051575;28;20032;-25
2022/09/19 10:54:39;;;;;;;3.17;0.73;;;17.30;92.90;;;;;;5051574;28;20028;-25
2022/09/19 10:57:26;;;;;;;3.72;0.98;;;17.30;92.90;;;;;;5051704;28;20025;-25
2022/09/19 10:59:59;;;;;;;3.42;0.75;;;17.30;92.90;;;;;;5051238;28;20029;-25
2022/09/19 11:02:26;;;;;;;3.58;1.08;;;17.40;93.00;;;;;;5051763;28;20032;-25
2022/09/19 11:04:56;;;;;;;2.50;1.00;;;17.40;93.00;;;;;;5051554;28;20037;-25
2022/09/19 11:07:26;;;;;;;2.78;1.08;;;17.40;93.00;;;;;;5051700;28;20044;-26
2022/09/19 11:09:58;;;;;;;4.30;1.30;;;17.40;93.00;;;;;;5052587;28;20028;-26
2022/09/19 11:12:25;;;;;;;11.05;1.00;;;17.20;91.90;;;;;;5054998;28;20025;-26
2022/09/19 11:14:55;;;;;;;3.65;0.98;;;16.90;91.30;;;;;;5055186;28;20025;-25
2022/09/19 11:17:39;;;;;;;3.67;1.00;;;16.60;91.80;;;;;;5054848;28;20013;-24
2022/09/19 11:20:16;;;;;;;4.72;0.63;;;16.50;91.90;;;;;;5054818;28;20112;-25
2022/09/19 11:23:20;;;;;;;4.97;0.80;;;16.30;91.90;;;;;;5055039;28;20036;-25
2022/09/19 11:26:00;;;;;;;7.18;1.13;;;16.30;91.90;;;;;;5055649;28;20079;-26
2022/09/19 11:28:44;;;;;;;2.47;0.50;;;16.30;92.30;;;;;;5055084;28;20406;-25
2022/09/19 11:31:34;;;;;;;4.75;0.85;;;16.60;92.60;;;;;;5054763;28;20094;-25
2022/09/19 11:34:19;;;;;;;4.03;0.80;;;16.80;92.20;;;;;;5054927;28;20025;-25
2022/09/19 11:37:38;;;;;;;1.35;0.40;;;17.00;92.20;;;;;;5055030;28;20025;-25
2022/09/19 11:40:35;;;;;;;3.85;0.70;;;17.10;92.10;;;;;;5049389;28;20048;-25
2022/09/19 11:43:30;;;;;;;2.67;0.60;;;17.30;92.10;;;;;;5054724;28;20111;-25
2022/09/19 11:46:21;;;;;;;2.85;0.50;;;17.30;91.90;;;;;;5054591;28;20067;-25
2022/09/19 11:49:34;;;;;;;3.00;0.70;;;17.40;92.00;;;;;;5054503;28;20025;-25
2022/09/19 11:52:18;;;;;;;3.70;0.57;;;17.50;92.10;;;;;;4953945;29;20106;-25
2022/09/19 11:54:52;;;;;;;2.43;0.80;;;17.50;92.10;;;;;;5006470;28;20021;-25
2022/09/19 11:57:37;;;;;;;3.08;0.68;;;17.50;92.20;;;;;;5054482;28;20025;-26
2022/09/19 12:00:12;;;;;;;4.22;0.60;;;17.50;92.10;;;;;;5054369;28;20032;-25
2022/09/19 12:03:10;;;;;;;4.03;0.60;;;17.50;92.20;;;;;;5054406;28;20473;-24
2022/09/19 12:05:52;;;;;;;2.50;0.52;;;17.50;92.30;;;;;;5054437;28;20040;-25
2022/09/19 12:08:47;;;;;;;2.80;0.50;;;17.50;92.30;;;;;;5054363;28;20032;-25
2022/09/19 12:11:14;;;;;;;;;;;17.50;92.30;;;;;;5049953;28;20036;-26
2022/09/19 12:13:54;;;;;;;3.58;0.75;;;17.50;92.40;;;;;;5054197;28;19908;-25
2022/09/19 12:16:28;;;;;;;1.40;0.40;;;17.50;92.40;;;;;;5054192;28;20075;-25
2022/09/19 12:19:00;;;;;;;3.40;0.65;;;17.50;92.50;;;;;;5054525;28;20473;-25
2022/09/19 12:21:34;;;;;;;1.58;0.47;;;17.50;92.60;;;;;;5035860;28;20028;-25
2022/09/19 12:27:21;;;;;;;1.27;0.50;;;17.40;92.70;;;;;;5020077;28;20032;-23
2022/09/19 12:30:05;;;;;;;5.10;1.23;;;17.40;93.10;;;;;;5034518;28;20084;-23
2022/09/19 12:32:49;;;;;;;5.95;1.05;;;17.30;93.80;;;;;;5034290;28;20504;-23
2022/09/19 12:35:25;;;;;;;3.20;0.90;;;17.00;94.60;;;;;;5034036;28;20040;-23
2022/09/19 12:38:29;;;;;;;5.30;0.82;;;17.00;94.90;;;;;;5033127;28;20044;-23
2022/09/19 12:41:13;;;;;;;2.85;0.55;;;16.90;95.10;;;;;;5033767;28;20040;-23
2022/09/19 12:44:00;;;;;;;5.97;0.98;;;17.00;95.20;;;;;;5034108;28;20372;-23
2022/09/19 12:46:50;;;;;;;2.28;0.77;;;17.10;95.10;;;;;;5033652;28;20364;-23
2022/09/19 12:49:18;;;;;;;2.80;0.70;;;17.20;94.80;;;;;;5033803;28;20030;-23
2022/09/19 12:52:10;;;;;;;3.67;0.75;;;17.20;94.50;;;;;;5033749;28;20078;-23
2022/09/19 12:54:54;;;;;;;2.22;0.57;;;17.40;94.40;;;;;;5033551;28;20029;-23
2022/09/19 12:57:51;;;;;;;2.15;0.70;;;17.40;94.30;;;;;;5033633;28;20064;-23
2022/09/19 13:00:18;;;;;;;3.72;1.33;;;17.50;94.20;;;;;;5033807;28;20030;-23
2022/09/19 13:03:31;;;;;;;2.20;0.60;;;17.50;94.20;;;;;;5033550;28;20557;-23
2022/09/19 13:06:07;;;;;;;2.70;0.80;;;17.50;94.20;;;;;;4918080;29;20118;-23
2022/09/19 13:08:44;;;;;;;2.58;0.90;;;17.50;94.20;;;;;;5028000;28;20038;-23
2022/09/19 13:11:21;;;;;;;3.08;0.70;;;17.50;94.20;;;;;;5033274;28;20040;-23
2022/09/19 13:13:56;;;;;;;4.70;0.80;;;17.40;94.20;;;;;;5033162;28;20049;-23
2022/09/19 13:16:31;;;;;;;1.70;0.60;;;17.50;94.30;;;;;;5033275;28;20033;-23
2022/09/19 13:24:29;;;;;;;3.05;0.65;;;17.60;94.00;;;;;;5032887;28;20183;-23
2022/09/19 13:26:56;;;;;;;0.98;0.50;;;17.60;94.00;;;;;;5033333;28;20055;-23
2022/09/19 13:29:28;;;;;;;2.15;0.63;;;17.70;94.00;;;;;;5032901;28;20117;-23
2022/09/19 13:31:56;;;;;;;1.42;0.50;;;17.70;94.00;;;;;;5032396;28;20040;-23
2022/09/19 13:34:43;;;;;;;3.03;0.70;;;17.70;93.90;;;;;;5032460;28;20060;-23
2022/09/19 13:37:28;;;;;;;1.45;0.60;;;17.70;94.00;;;;;;5032902;28;20068;-23
2022/09/19 13:40:15;;;;;;;;;;;17.70;93.90;;;;;;5032970;28;20045;-23
2022/09/19 13:43:18;;;;;;;2.03;0.60;;;17.80;93.90;;;;;;5032501;28;20332;-23
2022/09/19 13:46:05;;;;;;;1.60;0.57;;;17.80;93.90;;;;;;5015166;28;20069;-23